Luba, Equatorial Guinea
Current Conditions -  °F | °C
As of 11:00 AM on Saturday 25 Oct 2014 (Local Time) from FKKD Reporting Station
Thunderstorm Thunderstorm  
Wind Chill: 25°   Ceiling: 1000
Heat Index: 26°   Visibility: 2.5mi
Dew Point: 24°   Wind: 5mph
Humidity: 94%   Direction: 220°SW
Pressure: 29.94"   Gusts: NA
Location:  3.46°N, 8.55°E
Report Text: FKKD 251000Z 22004KT 4000 -TSRA SCT002 OVC010 SCT010CB 25/24 Q1014 TEMPO 2000 TSRA
Loading
Personal Weather Stations






























Interactive Weather Map
Tropical Storm Tracking
New forecast layout! Learn more

10-Day Weather Forecast

Advertisements
Track Severe Weather on mobile